Shemah Yisrael!
Hear, O Israel: the LORD our God, the LORD is one.
You shall love the LORD your God with all your heart and with all your soul and with all your might.
(Deuteronomy 6:4-5)
Houston / Ellington, TX, United States (KEFD) 29-36N 095-10W
Nov 18, 2017 - 09:50 PM EST / 2017.11.19 0250 UTC
Wind: from the NNW (330 degrees) at 17 MPH (15 KT) gusting to 25 MPH (22 KT):0
Visibility: 10 mile(s):0
Sky conditions: clear
Temperature: 66 F (19 C)
Dew Point: 42 F (6 C)
Relative Humidity: 42%
Pressure (altimeter): 30.08 in. Hg (1018 hPa)
ob: KEFD 190250Z 33015G22KT 10SM CLR 19/06 A3008
cycle: 3
w e b m a s t e r   a t   s h e m a h   d o t   n e t